默认 日期 大小 文件数 浏览量 最新下载 xml
critters磁力链接相关资源由用户搜索指令自动获取,结果来源于网络,本站不存储任何资料,亦不承担任何责任,请于24小时内删除,搜索到493个磁力,用时0ms。
    {"[TGx]Downloaded from torrentgalaxy.to .txt": 689, "Critters.Attack.2019.1080p.BluRay.1400MB.DD5.1.x264-GalaxyRG.mkv": 1506329754, "Critters.Attack.2019.1080p.BluRay.1400MB.DD5.1.x264-GalaxyRG.srt": 148}
创建时间: 2019-07-20 11:32:22 大小:1.4 GB 文件数量:3 热度:6 最近下载:2024-11-20 18:13:01
    {"Critters.Attack.2019.DVDRip.XviD.AC3-EVO.avi": 1398233651, "Critters.Attack.2019.DVDRip.XviD.AC3-EVO.nfo": 733}
创建时间: 2019-07-20 11:38:40 大小:1.3 GB 文件数量:2 热度:6 最近下载:2024-12-15 16:40:02
    {"Downloaded from www.ETTV.tv .txt": 278, "Critters.Attack.2019.BDRip.XviD.AC3-EVO.nfo": 736, "Critters.Attack.2019.BDRip.XviD.AC3-EVO[EtMovies].avi": 1403243615}
创建时间: 2019-07-20 16:34:16 大小:1.31 GB 文件数量:3 热度:5 最近下载:2024-10-24 05:55:01
    {"Critters 2 The Main Course (www.kinokopilka.tv).avi": 1465014272, "Critters 2 The Main Course (www.kinokopilka.tv).jpg": 47170, "KinoKopilka.tv - Best Movies BitTorrent Network.url": 154}
创建时间: 2019-07-20 20:23:21 大小:1.36 GB 文件数量:3 热度:7 最近下载:2025-09-20 21:41:05
    {"Critters.Attack.2019.DVDRip.XviD.AC3-EVO.avi": 1398233651, "Critters.Attack.2019.DVDRip.XviD.AC3-EVO.nfo": 733, "Torrent Downloaded From www.Torrenting.org.txt": 73}
创建时间: 2019-07-20 21:15:52 大小:1.3 GB 文件数量:3 热度:5 最近下载:2024-10-31 04:06:01
    {"Critters.Attack.2019..jpg.jpg": 135211, "Critters.Attack.2019.1080p.BluRay.DD5.1.x264.AC3-GalaxyRG.mkv": 1506329754, "Critters.Attack.2019.1080p.BluRay.DD5.1.x264.AC3-GalaxyRG.mkv_thumbs_[2019.07.20_01.44.08].jpg": 342073}
创建时间: 2019-07-21 01:45:08 大小:1.4 GB 文件数量:3 热度:7 最近下载:2024-12-04 16:36:04
    {"Critters.Attack.2019.BDRip.XviD.AC3-EVO.avi": 1403243615, "Critters.Attack.2019.BDRip.XviD.AC3-EVO.nfo": 736, "Torrent Downloaded From www.Torrenting.org.txt": 73}
创建时间: 2019-07-21 02:00:56 大小:1.31 GB 文件数量:3 热度:5 最近下载:2024-11-19 23:47:01
    {"forzado.srt": 214, "completo.srt": 67891, "alt-torrent.com.mp4": 4001994, "POR FAVOR!.....COMPARTAN!.txt": 125, "Critters Attack! (2019) BR-RIP 1080p LAT - FllorTV.jpg": 88614, "Critters Attack! (2019) BR-RIP 1080p LAT - FllorTV.mkv": 2908426268}
创建时间: 2019-07-21 07:08:32 大小:2.71 GB 文件数量:6 热度:5 最近下载:2024-11-20 15:11:01
    {"aCritters.Attack.HDR.Latino.avi": 1575076530, "Elitetorrent - Descargar Torrent sin Limites.url": 129}
创建时间: 2019-07-21 11:36:19 大小:1.47 GB 文件数量:2 热度:5 最近下载:2024-07-02 08:08:01
    {"[TGx]Downloaded from torrentgalaxy.to .txt": 689, "Critters.Attack.2019.DVDRip.XviD.AC3-EVO.avi": 1398233651, "Critters.Attack.2019.DVDRip.XviD.AC3-EVO.nfo": 733}
创建时间: 2019-07-21 11:50:56 大小:1.3 GB 文件数量:3 热度:5 最近下载:2024-12-11 02:37:02
    {"BDMV": {"BACKUP": {"CLIPINF": {"00000.clpi": 39344}, "PLAYLIST": {"00000.mpls": 500}, "index.bdmv": 120, "MovieObject.bdmv": 290}, "STREAM": {"00000.m2ts": 32092895232}, "CLIPINF": {"00000.clpi": 39344}, "PLAYLIST": {"00000.mpls": 500}, "index.bdmv": 120 ...
创建时间: 2019-07-22 01:23:48 大小:29.89 GB 文件数量:9 热度:5 最近下载:2025-03-08 06:24:03
    {"[TGx]Downloaded from torrentgalaxy.to .txt": 689, "Critters.Attack.2019.1080p.Bluray.DTS-HD.MA.5.1.x264-EVO.mkv": 11922594745, "Critters.Attack.2019.1080p.Bluray.DTS-HD.MA.5.1.x264-EVO.nfo": 803}
创建时间: 2019-07-22 06:41:14 大小:11.1 GB 文件数量:3 热度:3 最近下载:2021-06-17 16:25:58
    {"[TGx]Downloaded from torrentgalaxy.to .txt": 689, "Critters.Attack.2019.BDRip.XviD.AC3-EVO.avi": 1403243615, "Critters.Attack.2019.BDRip.XviD.AC3-EVO.nfo": 736}
创建时间: 2019-07-22 12:12:57 大小:1.31 GB 文件数量:3 热度:4 最近下载:2024-10-23 19:21:01
    {"PCTNEW ORG.url": 113, "DESCARGAS2020 ORG.url": 124, "Critters Al Ataque [BluRay Rip][AC3 5.1 Latino][2019][www.descargas2020.ORG][www.pctnew.ORG].avi": 1575076530}
创建时间: 2019-07-22 16:44:19 大小:1.47 GB 文件数量:3 热度:3 最近下载:2021-06-17 16:25:58
    {"[TGx]Downloaded from torrentgalaxy.to .txt": 689, "Critters.Attack.2019.720p.BluRay.800MB.x264-GalaxyRG.mkv": 834895669, "Critters.Attack.2019.720p.BluRay.800MB.x264-GalaxyRG.srt": 148}
创建时间: 2019-07-22 22:23:04 大小:796.22 MB 文件数量:3 热度:5 最近下载:2024-10-27 22:48:01
    {"RARBG.txt": 31, "Critters.Attack.2019.720p.BluRay.x264.DTS-FGT.mkv": 4693261102}
创建时间: 2019-07-24 06:51:33 大小:4.37 GB 文件数量:2 热度:5 最近下载:2024-12-10 12:06:02
    {"Subs": {"2_English.srt": 61348}, "RARBG.txt": 30, "RARBG_DO_NOT_MIRROR.exe": 99, "Critters.Attack.2019.720p.BluRay.H264.AAC-RARBG.mp4": 1158127429}
创建时间: 2019-07-24 06:53:03 大小:1.08 GB 文件数量:4 热度:5 最近下载:2024-10-27 21:42:02
    {"RARBG.txt": 31, "Critters.Attack.2019.1080p.BluRay.x264.DTS-HD.MA.5.1-FGT.mkv": 9403435396}
创建时间: 2019-07-24 12:07:13 大小:8.76 GB 文件数量:2 热度:5 最近下载:2024-11-20 19:57:01
    {"critters.mp4": 414642278, "critters 2.mp4": 414427664, "critters 3.mp4": 408763211, "critters 4.mp4": 456180974}
创建时间: 2019-07-24 14:06:02 大小:1.58 GB 文件数量:4 热度:3 最近下载:2021-06-17 16:25:58
    {"Subs": {"2_English.srt": 61348}, "RARBG.txt": 30, "RARBG_DO_NOT_MIRROR.exe": 99, "Critters.Attack.2019.BRRip.XviD.AC3-XVID.avi": 1235300652}
创建时间: 2019-07-24 15:50:09 大小:1.15 GB 文件数量:4 热度:6 最近下载:2024-12-14 08:30:02